createdAt,value
2018-07-24T00:00:02.005Z,17.64
2018-07-24T00:00:06.222Z,17.64
2018-07-24T00:00:10.320Z,17.63
2018-07-24T00:00:14.636Z,17.63
2018-07-24T00:00:18.860Z,17.63
2018-07-24T00:00:23.172Z,17.63
2018-07-24T00:00:27.377Z,17.63
2018-07-24T00:00:31.477Z,17.63
2018-07-24T00:00:35.682Z,17.63
2018-07-24T00:00:39.993Z,17.64
2018-07-24T00:00:44.308Z,17.64
2018-07-24T00:00:48.622Z,17.63
2018-07-24T00:00:52.831Z,17.64
2018-07-24T00:00:57.041Z,17.64
2018-07-24T00:01:01.251Z,17.64
2018-07-24T00:01:05.350Z,17.64
2018-07-24T00:01:09.660Z,17.64
2018-07-24T00:01:13.867Z,17.64
2018-07-24T00:01:17.858Z,17.64
2018-07-24T00:01:21.853Z,17.64
2018-07-24T00:01:26.164Z,17.63
2018-07-24T00:01:30.485Z,17.64
2018-07-24T00:01:34.797Z,17.64
2018-07-24T00:01:39.110Z,17.64
2018-07-24T00:01:43.436Z,17.64
2018-07-24T00:01:47.537Z,17.64
2018-07-24T00:01:51.534Z,17.64
2018-07-24T00:01:55.525Z,17.64
2018-07-24T00:01:59.835Z,17.64
2018-07-24T00:02:04.149Z,17.64
2018-07-24T00:02:08.364Z,17.63
2018-07-24T00:02:12.572Z,17.63
2018-07-24T00:02:16.670Z,17.62
2018-07-24T00:02:20.874Z,17.63
2018-07-24T00:02:24.974Z,17.63
2018-07-24T00:02:29.188Z,17.62
2018-07-24T00:02:33.283Z,17.62
2018-07-24T00:02:37.391Z,17.63
2018-07-24T00:02:41.599Z,17.64
2018-07-24T00:02:45.807Z,17.63
2018-07-24T00:02:49.906Z,17.63
2018-07-24T00:02:54.214Z,17.64
2018-07-24T00:02:58.422Z,17.63
2018-07-24T00:03:02.526Z,17.63
2018-07-24T00:03:06.738Z,17.63
2018-07-24T00:03:10.836Z,17.63
2018-07-24T00:03:14.821Z,17.63
2018-07-24T00:03:18.820Z,17.63
2018-07-24T00:03:23.135Z,17.63
2018-07-24T00:03:27.352Z,17.63
2018-07-24T00:03:31.557Z,17.63
2018-07-24T00:03:35.861Z,17.62
2018-07-24T00:03:40.072Z,17.62
2018-07-24T00:03:44.385Z,17.62
2018-07-24T00:03:48.696Z,17.63
2018-07-24T00:03:52.899Z,17.61
2018-07-24T00:03:56.997Z,17.62
2018-07-24T00:04:01.197Z,17.62
2018-07-24T00:04:05.437Z,17.62
2018-07-24T00:04:09.642Z,17.62
2018-07-24T00:04:13.958Z,17.61
2018-07-24T00:04:18.165Z,17.62
2018-07-24T00:04:22.380Z,17.61
2018-07-24T00:04:26.365Z,17.62
2018-07-24T00:04:30.569Z,17.62
2018-07-24T00:04:34.465Z,17.61
2018-07-24T00:04:38.563Z,17.61
2018-07-24T00:04:42.764Z,17.61
2018-07-24T00:04:46.976Z,17.61
2018-07-24T00:04:51.284Z,17.61
2018-07-24T00:04:55.590Z,17.61
2018-07-24T00:04:59.690Z,17.61
2018-07-24T00:05:03.576Z,17.61
2018-07-24T00:05:07.892Z,17.61
2018-07-24T00:05:11.990Z,17.61
2018-07-24T00:05:15.994Z,17.6
2018-07-24T00:05:20.197Z,17.6
2018-07-24T00:05:24.508Z,17.61
2018-07-24T00:05:28.715Z,17.6
2018-07-24T00:05:32.823Z,17.6
2018-07-24T00:05:37.029Z,17.6
2018-07-24T00:05:41.339Z,17.6
2018-07-24T00:05:45.544Z,17.6
2018-07-24T00:05:49.859Z,17.6
2018-07-24T00:05:54.164Z,17.6
2018-07-24T00:05:58.377Z,17.6
2018-07-24T00:06:02.632Z,17.6
2018-07-24T00:06:06.835Z,17.6
2018-07-24T00:06:11.038Z,17.59
2018-07-24T00:06:15.251Z,17.6
2018-07-24T00:06:19.456Z,17.6
2018-07-24T00:06:23.758Z,17.6
2018-07-24T00:06:28.068Z,17.59
2018-07-24T00:06:32.376Z,17.59
2018-07-24T00:06:36.580Z,17.6
2018-07-24T00:06:40.787Z,17.59
2018-07-24T00:06:45.101Z,17.59
2018-07-24T00:06:49.103Z,17.58
2018-07-24T00:06:53.422Z,17.59
2018-07-24T00:06:57.521Z,17.58
2018-07-24T00:07:01.831Z,17.59
2018-07-24T00:07:05.830Z,17.58
2018-07-24T00:07:09.945Z,17.58
2018-07-24T00:07:14.142Z,17.58
2018-07-24T00:07:18.245Z,17.57
2018-07-24T00:07:22.450Z,17.58
2018-07-24T00:07:26.544Z,17.58
2018-07-24T00:07:30.747Z,17.57
2018-07-24T00:07:35.058Z,17.56
2018-07-24T00:07:39.371Z,17.57
2018-07-24T00:07:43.683Z,17.57
2018-07-24T00:07:47.886Z,17.57
2018-07-24T00:07:52.205Z,17.57
2018-07-24T00:07:56.195Z,17.57
2018-07-24T00:08:00.509Z,17.57
2018-07-24T00:08:04.612Z,17.56
2018-07-24T00:08:08.820Z,17.57
2018-07-24T00:08:12.921Z,17.57
2018-07-24T00:08:17.285Z,17.56
2018-07-24T00:08:21.592Z,17.57
2018-07-24T00:08:25.799Z,17.55
2018-07-24T00:08:30.116Z,17.56
2018-07-24T00:08:34.434Z,17.55
2018-07-24T00:08:38.641Z,17.56
2018-07-24T00:08:42.958Z,17.56
2018-07-24T00:08:47.161Z,17.55
2018-07-24T00:08:51.152Z,17.55
2018-07-24T00:08:55.368Z,17.55
2018-07-24T00:08:59.586Z,17.55
2018-07-24T00:09:03.685Z,17.55
2018-07-24T00:09:07.790Z,17.55
2018-07-24T00:09:11.999Z,17.55
2018-07-24T00:09:16.111Z,17.55
2018-07-24T00:09:20.258Z,17.54
2018-07-24T00:09:24.573Z,17.54
2018-07-24T00:09:28.782Z,17.53
2018-07-24T00:09:32.992Z,17.55
2018-07-24T00:09:37.299Z,17.55
2018-07-24T00:09:41.509Z,17.55
2018-07-24T00:09:45.606Z,17.55
2018-07-24T00:09:49.925Z,17.53
2018-07-24T00:09:54.235Z,17.54
2018-07-24T00:09:58.334Z,17.54
2018-07-24T00:10:02.543Z,17.53
2018-07-24T00:10:06.646Z,17.53
2018-07-24T00:10:11.086Z,17.53
2018-07-24T00:10:15.404Z,17.53
2018-07-24T00:10:19.719Z,17.54
2018-07-24T00:10:24.034Z,17.53
2018-07-24T00:10:28.137Z,17.53
2018-07-24T00:10:32.446Z,17.53
2018-07-24T00:10:36.649Z,17.53
2018-07-24T00:10:40.846Z,17.53
2018-07-24T00:10:45.160Z,17.51
2018-07-24T00:10:49.346Z,17.51
2018-07-24T00:10:54.001Z,17.51
2018-07-24T00:10:58.647Z,17.52
2018-07-24T00:11:03.520Z,17.51
2018-07-24T00:11:07.662Z,17.52
2018-07-24T00:11:11.771Z,17.51
2018-07-24T00:11:16.086Z,17.51
2018-07-24T00:11:20.298Z,17.5
2018-07-24T00:11:24.401Z,17.51
2018-07-24T00:11:28.762Z,17.51
2018-07-24T00:11:33.084Z,17.51
2018-07-24T00:11:37.290Z,17.51
2018-07-24T00:11:41.403Z,17.5
2018-07-24T00:11:45.722Z,17.49
2018-07-24T00:11:49.926Z,17.49
2018-07-24T00:11:54.240Z,17.5
2018-07-24T00:11:58.551Z,17.48
2018-07-24T00:12:02.760Z,17.49
2018-07-24T00:12:06.969Z,17.49
2018-07-24T00:12:11.068Z,17.49
2018-07-24T00:12:15.272Z,17.48
2018-07-24T00:12:19.514Z,17.49
2018-07-24T00:12:23.730Z,17.48
2018-07-24T00:12:27.824Z,17.48
2018-07-24T00:12:32.027Z,17.48
2018-07-24T00:12:36.234Z,17.48
2018-07-24T00:12:40.542Z,17.47
2018-07-24T00:12:44.744Z,17.48
2018-07-24T00:12:48.949Z,17.47
2018-07-24T00:12:53.158Z,17.47
2018-07-24T00:12:57.468Z,17.47
2018-07-24T00:13:01.457Z,17.47
2018-07-24T00:13:05.677Z,17.46
2018-07-24T00:13:10.001Z,17.47
2018-07-24T00:13:14.202Z,17.46
2018-07-24T00:13:18.406Z,17.47
2018-07-24T00:13:22.719Z,17.46
2018-07-24T00:13:26.922Z,17.46
2018-07-24T00:13:31.127Z,17.45
2018-07-24T00:13:35.444Z,17.46
2018-07-24T00:13:39.763Z,17.46
2018-07-24T00:13:44.073Z,17.46
2018-07-24T00:13:48.325Z,17.45
2018-07-24T00:13:52.636Z,17.45
2018-07-24T00:13:56.947Z,17.45
2018-07-24T00:14:01.265Z,17.45
2018-07-24T00:14:05.265Z,17.45
2018-07-24T00:14:09.488Z,17.45
2018-07-24T00:14:13.689Z,17.45
2018-07-24T00:14:17.892Z,17.45
2018-07-24T00:14:21.774Z,17.45
2018-07-24T00:14:25.973Z,17.45
2018-07-24T00:14:29.965Z,17.45
2018-07-24T00:14:34.288Z,17.44
2018-07-24T00:14:38.492Z,17.44
2018-07-24T00:14:42.800Z,17.44
2018-07-24T00:14:47.010Z,17.44
2018-07-24T00:14:51.327Z,17.44
2018-07-24T00:14:55.422Z,17.44
2018-07-24T00:14:59.631Z,17.43
2018-07-24T00:15:03.946Z,17.43
2018-07-24T00:15:08.256Z,17.43
2018-07-24T00:15:12.461Z,17.43
2018-07-24T00:15:16.671Z,17.44
2018-07-24T00:15:20.766Z,17.43
2018-07-24T00:15:25.077Z,17.43
2018-07-24T00:15:29.279Z,17.43
2018-07-24T00:15:33.161Z,17.42
2018-07-24T00:15:37.481Z,17.43
2018-07-24T00:15:41.788Z,17.43
2018-07-24T00:15:46.108Z,17.42
2018-07-24T00:15:50.420Z,17.41
2018-07-24T00:15:54.639Z,17.41
2018-07-24T00:15:58.961Z,17.42
2018-07-24T00:16:03.062Z,17.41
2018-07-24T00:16:06.945Z,17.42
2018-07-24T00:16:11.151Z,17.42
2018-07-24T00:16:15.246Z,17.42
2018-07-24T00:16:19.563Z,17.41
2018-07-24T00:16:23.773Z,17.41
2018-07-24T00:16:27.760Z,17.41
2018-07-24T00:16:31.861Z,17.41
2018-07-24T00:16:35.962Z,17.42
2018-07-24T00:16:40.205Z,17.41
2018-07-24T00:16:44.415Z,17.41
2018-07-24T00:16:48.729Z,17.41
2018-07-24T00:16:53.050Z,17.41
2018-07-24T00:16:57.158Z,17.41
2018-07-24T00:17:01.368Z,17.4
2018-07-24T00:17:05.626Z,17.41
2018-07-24T00:17:09.833Z,17.4
2018-07-24T00:17:14.038Z,17.4
2018-07-24T00:17:18.027Z,17.4
2018-07-24T00:17:22.127Z,17.4
2018-07-24T00:17:26.329Z,17.39
2018-07-24T00:17:30.557Z,17.41
2018-07-24T00:17:34.761Z,17.4
2018-07-24T00:17:39.086Z,17.39
2018-07-24T00:17:43.395Z,17.4
2018-07-24T00:17:47.599Z,17.4
2018-07-24T00:17:51.918Z,17.4
2018-07-24T00:17:56.012Z,17.39
2018-07-24T00:18:00.218Z,17.4
2018-07-24T00:18:04.317Z,17.4
2018-07-24T00:18:08.522Z,17.4
2018-07-24T00:18:12.731Z,17.39
2018-07-24T00:18:16.826Z,17.4
2018-07-24T00:18:20.931Z,17.39
2018-07-24T00:18:25.241Z,17.39
2018-07-24T00:18:29.556Z,17.4
2018-07-24T00:18:33.760Z,17.4
2018-07-24T00:18:38.087Z,17.39
2018-07-24T00:18:42.404Z,17.39
2018-07-24T00:18:46.617Z,17.39
2018-07-24T00:18:50.715Z,17.39
2018-07-24T00:18:54.912Z,17.39
2018-07-24T00:18:59.221Z,17.38
2018-07-24T00:19:03.213Z,17.39
2018-07-24T00:19:07.419Z,17.38
2018-07-24T00:19:11.531Z,17.38
2018-07-24T00:19:15.744Z,17.39
2018-07-24T00:19:20.060Z,17.38
2018-07-24T00:19:24.392Z,17.38
2018-07-24T00:19:28.600Z,17.38
2018-07-24T00:19:32.913Z,17.37
2018-07-24T00:19:37.116Z,17.37
2018-07-24T00:19:41.325Z,17.38
2018-07-24T00:19:45.636Z,17.36
2018-07-24T00:19:49.951Z,17.38
2018-07-24T00:19:54.261Z,17.37
2018-07-24T00:19:58.143Z,17.37
2018-07-24T00:20:02.348Z,17.37
2018-07-24T00:20:06.349Z,17.37
2018-07-24T00:20:10.452Z,17.38
2018-07-24T00:20:14.596Z,17.37
2018-07-24T00:20:18.912Z,17.37
2018-07-24T00:20:23.113Z,17.36
2018-07-24T00:20:27.317Z,17.36
2018-07-24T00:20:31.520Z,17.36
2018-07-24T00:20:35.619Z,17.36
2018-07-24T00:20:39.822Z,17.37
2018-07-24T00:20:44.030Z,17.36
2018-07-24T00:20:48.339Z,17.36
2018-07-24T00:20:52.651Z,17.36
2018-07-24T00:20:56.852Z,17.37
2018-07-24T00:21:01.061Z,17.36
2018-07-24T00:21:05.264Z,17.35
2018-07-24T00:21:09.585Z,17.36
2018-07-24T00:21:13.781Z,17.36
2018-07-24T00:21:17.882Z,17.34
2018-07-24T00:21:22.192Z,17.35
2018-07-24T00:21:26.397Z,17.34
2018-07-24T00:21:30.608Z,17.34
2018-07-24T00:21:34.918Z,17.34
2018-07-24T00:21:39.224Z,17.34
2018-07-24T00:21:43.435Z,17.34
2018-07-24T00:21:47.742Z,17.35
2018-07-24T00:21:51.967Z,17.35
2018-07-24T00:21:55.954Z,17.36
2018-07-24T00:22:00.159Z,17.34
2018-07-24T00:22:04.254Z,17.36
2018-07-24T00:22:08.568Z,17.35
2018-07-24T00:22:12.893Z,17.35
2018-07-24T00:22:17.093Z,17.34
2018-07-24T00:22:21.298Z,17.35
2018-07-24T00:22:25.605Z,17.34
2018-07-24T00:22:29.702Z,17.35
2018-07-24T00:22:33.908Z,17.34
2018-07-24T00:22:38.222Z,17.34
2018-07-24T00:22:42.525Z,17.34
2018-07-24T00:22:46.726Z,17.34
2018-07-24T00:23:23.033Z,17.34
2018-07-24T00:23:27.241Z,17.34
2018-07-24T00:23:31.449Z,17.34
2018-07-24T00:23:35.758Z,17.34
2018-07-24T00:23:39.872Z,17.34
2018-07-24T00:23:44.186Z,17.33
2018-07-24T00:23:48.393Z,17.34
2018-07-24T00:23:52.385Z,17.34
2018-07-24T00:23:56.486Z,17.34
2018-07-24T00:24:00.807Z,17.33
2018-07-24T00:24:04.921Z,17.34
2018-07-24T00:24:09.140Z,17.34
2018-07-24T00:24:13.353Z,17.34
2018-07-24T00:24:17.561Z,17.35
2018-07-24T00:24:21.880Z,17.33
2018-07-24T00:24:26.092Z,17.34
2018-07-24T00:24:30.296Z,17.34
2018-07-24T00:24:34.657Z,17.34
2018-07-24T00:24:38.755Z,17.34
2018-07-24T00:24:43.062Z,17.33
2018-07-24T00:24:47.085Z,17.34
2018-07-24T00:24:51.401Z,17.34
2018-07-24T00:24:55.605Z,17.33
2018-07-24T00:24:59.817Z,17.33
2018-07-24T00:25:03.816Z,17.33
2018-07-24T00:25:08.020Z,17.33
2018-07-24T00:25:12.222Z,17.33
2018-07-24T00:25:16.319Z,17.34
2018-07-24T00:25:20.527Z,17.33
2018-07-24T00:25:24.890Z,17.34
2018-07-24T00:25:29.200Z,17.34
2018-07-24T00:25:33.521Z,17.34
2018-07-24T00:25:37.730Z,17.33
2018-07-24T00:25:41.937Z,17.33
2018-07-24T00:25:46.150Z,17.34
2018-07-24T00:25:50.512Z,17.34
2018-07-24T00:25:54.823Z,17.33
2018-07-24T00:25:59.030Z,17.33
2018-07-24T00:26:03.026Z,17.34
2018-07-24T00:26:07.120Z,17.33
2018-07-24T00:26:11.431Z,17.34
2018-07-24T00:26:15.642Z,17.33
2018-07-24T00:26:19.846Z,17.33
2018-07-24T00:26:24.160Z,17.34
2018-07-24T00:26:28.472Z,17.34
2018-07-24T00:26:32.678Z,17.34
2018-07-24T00:26:36.892Z,17.34
2018-07-24T00:26:40.987Z,17.34
2018-07-24T00:26:45.190Z,17.34
2018-07-24T00:26:49.504Z,17.34
2018-07-24T00:26:53.607Z,17.33
2018-07-24T00:26:57.929Z,17.33
2018-07-24T00:27:02.245Z,17.34
2018-07-24T00:27:06.341Z,17.34
2018-07-24T00:27:10.442Z,17.33
2018-07-24T00:27:14.643Z,17.34
2018-07-24T00:27:18.735Z,17.34
2018-07-24T00:27:22.936Z,17.34
2018-07-24T00:27:27.142Z,17.35
2018-07-24T00:27:31.456Z,17.34
2018-07-24T00:27:35.771Z,17.35
2018-07-24T00:27:39.981Z,17.34
2018-07-24T00:27:44.294Z,17.34
2018-07-24T00:27:48.394Z,17.34
2018-07-24T00:27:52.492Z,17.35
2018-07-24T00:27:56.748Z,17.34
2018-07-24T00:28:01.059Z,17.34
2018-07-24T00:28:05.383Z,17.34
2018-07-24T00:28:09.602Z,17.34
2018-07-24T00:28:13.811Z,17.34
2018-07-24T00:28:18.177Z,17.34
2018-07-24T00:28:22.274Z,17.34
2018-07-24T00:28:26.279Z,17.34
2018-07-24T00:28:30.375Z,17.34
2018-07-24T00:28:34.470Z,17.34
2018-07-24T00:28:38.694Z,17.34
2018-07-24T00:28:42.898Z,17.34
2018-07-24T00:28:47.101Z,17.35
2018-07-24T00:28:51.410Z,17.34
2018-07-24T00:28:55.622Z,17.34
2018-07-24T00:28:59.834Z,17.34
2018-07-24T00:29:04.157Z,17.34
2018-07-24T00:29:08.361Z,17.34
2018-07-24T00:29:12.457Z,17.33
2018-07-24T00:29:16.662Z,17.34
2018-07-24T00:29:20.858Z,17.34
2018-07-24T00:29:25.064Z,17.36
2018-07-24T00:29:29.161Z,17.34
2018-07-24T00:29:33.474Z,17.34
2018-07-24T00:29:37.681Z,17.34
2018-07-24T00:29:41.900Z,17.34
2018-07-24T00:29:46.109Z,17.35
2018-07-24T00:29:50.424Z,17.34
2018-07-24T00:29:54.623Z,17.34
2018-07-24T00:29:58.937Z,17.35
2018-07-24T00:30:03.033Z,17.34
2018-07-24T00:30:07.254Z,17.34
2018-07-24T00:30:11.244Z,17.34
2018-07-24T00:30:15.562Z,17.34
2018-07-24T00:30:19.775Z,17.33
2018-07-24T00:30:23.978Z,17.34
2018-07-24T00:30:28.292Z,17.34
2018-07-24T00:30:32.493Z,17.34
2018-07-24T00:30:36.698Z,17.34
2018-07-24T00:30:41.009Z,17.34
2018-07-24T00:30:45.221Z,17.34
2018-07-24T00:30:49.424Z,17.34
2018-07-24T00:30:53.739Z,17.34
2018-07-24T00:30:58.050Z,17.34
2018-07-24T00:31:02.260Z,17.34
2018-07-24T00:31:06.575Z,17.34
2018-07-24T00:31:10.566Z,17.34
2018-07-24T00:31:14.880Z,17.34
2018-07-24T00:31:19.191Z,17.33
2018-07-24T00:31:23.489Z,17.32
2018-07-24T00:31:27.918Z,17.33
2018-07-24T00:31:32.159Z,17.33
2018-07-24T00:31:36.365Z,17.32
2018-07-24T00:31:40.678Z,17.33
2018-07-24T00:31:44.891Z,17.33
2018-07-24T00:31:49.101Z,17.32
2018-07-24T00:31:53.207Z,17.33
2018-07-24T00:31:57.528Z,17.32
2018-07-24T00:32:01.575Z,17.32
2018-07-24T00:32:05.963Z,17.33
2018-07-24T00:32:10.526Z,17.32
2018-07-24T00:32:15.130Z,17.32
2018-07-24T00:32:19.380Z,17.33
2018-07-24T00:32:23.588Z,17.32
2018-07-24T00:32:27.909Z,17.32
2018-07-24T00:32:32.005Z,17.33
2018-07-24T00:32:36.211Z,17.33
2018-07-24T00:32:40.323Z,17.33
2018-07-24T00:32:44.420Z,17.32
2018-07-24T00:32:48.620Z,17.32
2018-07-24T00:32:52.929Z,17.32
2018-07-24T00:32:57.133Z,17.32
2018-07-24T00:33:01.226Z,17.32
2018-07-24T00:33:05.219Z,17.32
2018-07-24T00:33:09.421Z,17.32
2018-07-24T00:33:13.621Z,17.32
2018-07-24T00:33:17.716Z,17.32
2018-07-24T00:33:21.815Z,17.31
2018-07-24T00:33:25.913Z,17.32
2018-07-24T00:33:30.012Z,17.32
2018-07-24T00:33:34.213Z,17.31
2018-07-24T00:33:38.434Z,17.31
2018-07-24T00:33:42.528Z,17.31
2018-07-24T00:33:46.626Z,17.31
2018-07-24T00:33:50.943Z,17.31
2018-07-24T00:33:55.266Z,17.31
2018-07-24T00:33:59.584Z,17.31
2018-07-24T00:34:03.681Z,17.31
2018-07-24T00:34:07.882Z,17.31
2018-07-24T00:34:12.097Z,17.31
2018-07-24T00:34:16.300Z,17.31
2018-07-24T00:34:20.398Z,17.32
2018-07-24T00:34:24.708Z,17.31
2018-07-24T00:34:28.930Z,17.31
2018-07-24T00:34:33.284Z,17.3
2018-07-24T00:34:37.499Z,17.31
2018-07-24T00:34:41.811Z,17.31
2018-07-24T00:34:46.015Z,17.31
2018-07-24T00:34:50.330Z,17.31
2018-07-24T00:34:54.538Z,17.3
2018-07-24T00:34:58.857Z,17.31
2018-07-24T00:35:03.081Z,17.31
2018-07-24T00:35:07.397Z,17.3
2018-07-24T00:35:11.614Z,17.31
2018-07-24T00:35:15.830Z,17.3
2018-07-24T00:35:20.029Z,17.3
2018-07-24T00:35:24.349Z,17.3
2018-07-24T00:35:28.549Z,17.3
2018-07-24T00:35:32.755Z,17.31
2018-07-24T00:35:36.963Z,17.3
2018-07-24T00:35:40.951Z,17.31
2018-07-24T00:35:45.265Z,17.31
2018-07-24T00:35:49.469Z,17.3
2018-07-24T00:35:53.828Z,17.3
2018-07-24T00:35:57.929Z,17.3
2018-07-24T00:36:02.132Z,17.3
2018-07-24T00:36:06.245Z,17.3
2018-07-24T00:36:10.349Z,17.3
2018-07-24T00:36:14.463Z,17.3
2018-07-24T00:36:18.573Z,17.29
2018-07-24T00:36:22.782Z,17.29
2018-07-24T00:36:26.986Z,17.3
2018-07-24T00:36:31.191Z,17.3
2018-07-24T00:36:35.402Z,17.29
2018-07-24T00:36:39.619Z,17.28
2018-07-24T00:36:43.824Z,17.29
2018-07-24T00:36:48.030Z,17.29
2018-07-24T00:36:52.028Z,17.29
2018-07-24T00:36:56.344Z,17.29
2018-07-24T00:37:00.551Z,17.29
2018-07-24T00:37:04.475Z,17.29
2018-07-24T00:37:08.463Z,17.29
2018-07-24T00:37:12.566Z,17.29
2018-07-24T00:37:16.782Z,17.27
2018-07-24T00:37:21.098Z,17.28
2018-07-24T00:37:25.399Z,17.27
2018-07-24T00:37:29.506Z,17.28
2018-07-24T00:37:33.767Z,17.28
2018-07-24T00:37:37.971Z,17.28
2018-07-24T00:37:42.178Z,17.28
2018-07-24T00:37:46.389Z,17.28
2018-07-24T00:37:50.714Z,17.28
2018-07-24T00:37:55.023Z,17.27
2018-07-24T00:37:59.338Z,17.28
2018-07-24T00:38:03.551Z,17.27
2018-07-24T00:38:07.868Z,17.28
2018-07-24T00:38:12.074Z,17.27
2018-07-24T00:38:16.171Z,17.28
2018-07-24T00:38:20.274Z,17.28
2018-07-24T00:38:24.582Z,17.28
2018-07-24T00:38:28.679Z,17.27
2018-07-24T00:38:32.774Z,17.28
2018-07-24T00:38:37.088Z,17.28
2018-07-24T00:38:41.288Z,17.28
2018-07-24T00:38:45.496Z,17.28
2018-07-24T00:38:49.800Z,17.28
2018-07-24T00:38:54.005Z,17.28
2018-07-24T00:38:58.319Z,17.28
2018-07-24T00:39:02.626Z,17.28
2018-07-24T00:39:06.524Z,17.28
2018-07-24T00:39:10.840Z,17.28
2018-07-24T00:39:14.826Z,17.28
2018-07-24T00:39:19.035Z,17.27
2018-07-24T00:39:23.236Z,17.28
2018-07-24T00:39:27.447Z,17.28
2018-07-24T00:39:31.433Z,17.27
2018-07-24T00:39:35.646Z,17.28
2018-07-24T00:39:39.742Z,17.27
2018-07-24T00:39:43.955Z,17.28
2018-07-24T00:39:48.049Z,17.28
2018-07-24T00:39:52.354Z,17.28
2018-07-24T00:39:56.566Z,17.27
2018-07-24T00:40:00.915Z,17.27
2018-07-24T00:40:05.017Z,17.27
2018-07-24T00:40:09.226Z,17.27
2018-07-24T00:40:13.428Z,17.26
2018-07-24T00:40:17.428Z,17.27
2018-07-24T00:40:21.429Z,17.26
2018-07-24T00:40:25.531Z,17.27
2018-07-24T00:40:29.735Z,17.27
2018-07-24T00:40:33.938Z,17.26
2018-07-24T00:40:38.138Z,17.26
2018-07-24T00:40:42.462Z,17.27
2018-07-24T00:40:46.775Z,17.26
2018-07-24T00:40:51.085Z,17.26
2018-07-24T00:40:55.284Z,17.26
2018-07-24T00:40:59.601Z,17.26
2018-07-24T00:41:03.699Z,17.26
2018-07-24T00:41:07.909Z,17.26
2018-07-24T00:41:12.113Z,17.26
2018-07-24T00:41:16.315Z,17.25
2018-07-24T00:41:20.625Z,17.25
2018-07-24T00:41:24.941Z,17.25
2018-07-24T00:41:29.259Z,17.25
2018-07-24T00:41:33.460Z,17.26
2018-07-24T00:41:37.768Z,17.25
2018-07-24T00:41:42.093Z,17.25
2018-07-24T00:41:46.297Z,17.25
2018-07-24T00:41:50.619Z,17.25
2018-07-24T00:41:54.831Z,17.26
2018-07-24T00:41:59.036Z,17.24
2018-07-24T00:42:03.292Z,17.25
2018-07-24T00:42:07.497Z,17.25
2018-07-24T00:42:11.598Z,17.24
2018-07-24T00:42:15.914Z,17.24
2018-07-24T00:42:20.131Z,17.25
2018-07-24T00:42:24.337Z,17.24
2018-07-24T00:42:28.551Z,17.24
2018-07-24T00:42:32.752Z,17.23
2018-07-24T00:42:36.849Z,17.23
2018-07-24T00:42:41.047Z,17.23
2018-07-24T00:42:45.251Z,17.23
2018-07-24T00:42:49.451Z,17.23
2018-07-24T00:42:53.756Z,17.23
2018-07-24T00:42:57.955Z,17.23
2018-07-24T00:43:02.164Z,17.23
2018-07-24T00:43:06.161Z,17.23
2018-07-24T00:43:10.255Z,17.23
2018-07-24T00:43:14.462Z,17.23
2018-07-24T00:43:18.555Z,17.23
2018-07-24T00:43:22.767Z,17.22
2018-07-24T00:43:27.083Z,17.23
2018-07-24T00:43:31.187Z,17.22
2018-07-24T00:43:35.506Z,17.22
2018-07-24T00:43:39.605Z,17.22
2018-07-24T00:43:43.809Z,17.22
2018-07-24T00:43:48.017Z,17.21
2018-07-24T00:43:52.327Z,17.22
2018-07-24T00:43:56.536Z,17.21
2018-07-24T00:44:00.745Z,17.22
2018-07-24T00:44:05.054Z,17.21
2018-07-24T00:44:09.259Z,17.22
2018-07-24T00:44:13.470Z,17.22
2018-07-24T00:44:17.569Z,17.21
2018-07-24T00:44:21.771Z,17.2
2018-07-24T00:44:25.877Z,17.21
2018-07-24T00:44:29.967Z,17.21
2018-07-24T00:44:34.178Z,17.21
2018-07-24T00:44:38.485Z,17.2
2018-07-24T00:44:42.790Z,17.2
2018-07-24T00:44:47.091Z,17.2
2018-07-24T00:44:51.404Z,17.2
2018-07-24T00:44:55.719Z,17.2
2018-07-24T00:44:59.928Z,17.19
2018-07-24T00:45:04.034Z,17.19
2018-07-24T00:45:08.241Z,17.19
2018-07-24T00:45:12.448Z,17.18
2018-07-24T00:45:16.438Z,17.19
2018-07-24T00:45:20.750Z,17.18
2018-07-24T00:45:25.053Z,17.18
2018-07-24T00:45:29.301Z,17.18
2018-07-24T00:45:33.393Z,17.18
2018-07-24T00:45:37.704Z,17.18
2018-07-24T00:45:42.017Z,17.18
2018-07-24T00:45:46.222Z,17.19
2018-07-24T00:45:50.324Z,17.18
2018-07-24T00:45:54.528Z,17.18
2018-07-24T00:45:58.837Z,17.18
2018-07-24T00:46:02.936Z,17.18
2018-07-24T00:46:06.932Z,17.17
2018-07-24T00:46:11.141Z,17.17
2018-07-24T00:46:15.458Z,17.18
2018-07-24T00:46:19.552Z,17.19
2018-07-24T00:46:23.754Z,17.18
2018-07-24T00:46:27.956Z,17.18
2018-07-24T00:46:32.267Z,17.18
2018-07-24T00:46:36.577Z,17.18
2018-07-24T00:46:40.677Z,17.18
2018-07-24T00:46:44.984Z,17.18
2018-07-24T00:46:49.195Z,17.18
2018-07-24T00:46:53.297Z,17.18
2018-07-24T00:46:57.394Z,17.17
2018-07-24T00:47:01.707Z,17.18
2018-07-24T00:47:05.804Z,17.17
2018-07-24T00:47:09.912Z,17.17
2018-07-24T00:47:14.117Z,17.17
2018-07-24T00:47:18.321Z,17.18
2018-07-24T00:47:22.418Z,17.17
2018-07-24T00:47:26.666Z,17.17
2018-07-24T00:47:30.889Z,17.17
2018-07-24T00:47:35.580Z,17.17
2018-07-24T00:47:40.525Z,17.17
2018-07-24T00:47:45.057Z,17.17
2018-07-24T00:47:49.051Z,17.17
2018-07-24T00:47:53.368Z,17.17
2018-07-24T00:47:57.361Z,17.17
2018-07-24T00:48:01.456Z,17.18
2018-07-24T00:48:05.458Z,17.18
2018-07-24T00:48:09.778Z,17.17
2018-07-24T00:48:13.984Z,17.18
2018-07-24T00:48:18.296Z,17.18
2018-07-24T00:48:22.501Z,17.17
2018-07-24T00:48:26.711Z,17.17
2018-07-24T00:48:31.024Z,17.16
2018-07-24T00:48:35.228Z,17.17
2018-07-24T00:48:39.537Z,17.17
2018-07-24T00:48:43.636Z,17.17
2018-07-24T00:48:47.840Z,17.17
2018-07-24T00:48:52.160Z,17.17
2018-07-24T00:48:56.363Z,17.18
2018-07-24T00:49:00.472Z,17.17
2018-07-24T00:49:04.578Z,17.18
2018-07-24T00:49:08.786Z,17.17
2018-07-24T00:49:13.096Z,17.18
2018-07-24T00:49:17.424Z,17.18
2018-07-24T00:49:21.524Z,17.18
2018-07-24T00:49:25.729Z,17.18
2018-07-24T00:49:29.835Z,17.17
2018-07-24T00:49:34.055Z,17.17
2018-07-24T00:49:38.262Z,17.17
2018-07-24T00:49:42.471Z,17.18
2018-07-24T00:49:46.785Z,17.17
2018-07-24T00:49:50.998Z,17.18
2018-07-24T00:49:55.093Z,17.18
2018-07-24T00:49:59.304Z,17.17
2018-07-24T00:50:03.512Z,17.18
2018-07-24T00:50:07.506Z,17.18
2018-07-24T00:50:11.712Z,17.17
2018-07-24T00:50:16.038Z,17.17
2018-07-24T00:50:20.348Z,17.17
2018-07-24T00:50:24.660Z,17.16
2018-07-24T00:50:28.881Z,17.17
2018-07-24T00:50:33.244Z,17.18
2018-07-24T00:50:37.445Z,17.17
2018-07-24T00:50:41.653Z,17.17
2018-07-24T00:50:45.864Z,17.18
2018-07-24T00:50:50.174Z,17.17
2018-07-24T00:50:54.376Z,17.17
2018-07-24T00:50:58.686Z,17.17
2018-07-24T00:51:02.888Z,17.17
2018-07-24T00:51:06.983Z,17.17
2018-07-24T00:51:10.878Z,17.17
2018-07-24T00:51:15.184Z,17.17
2018-07-24T00:51:19.280Z,17.17
2018-07-24T00:51:23.587Z,17.16
2018-07-24T00:51:27.788Z,17.17
2018-07-24T00:51:31.782Z,17.17
2018-07-24T00:51:35.987Z,17.17
2018-07-24T00:51:40.082Z,17.16
2018-07-24T00:51:44.290Z,17.17
2018-07-24T00:51:48.493Z,17.16
2018-07-24T00:51:52.595Z,17.17
2018-07-24T00:51:56.697Z,17.17
2018-07-24T00:52:00.805Z,17.17
2018-07-24T00:52:05.020Z,17.17
2018-07-24T00:52:09.231Z,17.16
2018-07-24T00:52:13.329Z,17.16
2018-07-24T00:52:17.537Z,17.16
2018-07-24T00:52:21.530Z,17.16
2018-07-24T00:52:25.735Z,17.16
2018-07-24T00:52:30.043Z,17.15
2018-07-24T00:52:34.352Z,17.16
2018-07-24T00:52:38.659Z,17.16
2018-07-24T00:52:42.752Z,17.15
2018-07-24T00:52:47.057Z,17.16
2018-07-24T00:52:51.256Z,17.16
2018-07-24T00:52:55.576Z,17.16
2018-07-24T00:52:59.778Z,17.15
2018-07-24T00:53:03.980Z,17.14
2018-07-24T00:53:08.289Z,17.15
2018-07-24T00:53:12.612Z,17.16
2018-07-24T00:53:16.929Z,17.15
2018-07-24T00:53:21.022Z,17.15
2018-07-24T00:53:25.115Z,17.15
2018-07-24T00:53:29.427Z,17.15
2018-07-24T00:53:33.748Z,17.14
2018-07-24T00:53:38.052Z,17.14
2018-07-24T00:53:42.366Z,17.14
2018-07-24T00:53:46.567Z,17.13
2018-07-24T00:53:50.931Z,17.13
2018-07-24T00:53:55.236Z,17.14
2018-07-24T00:53:59.446Z,17.14
2018-07-24T00:54:03.789Z,17.14
2018-07-24T00:54:08.302Z,17.14
2018-07-24T00:54:12.964Z,17.13
2018-07-24T00:54:17.898Z,17.14
2018-07-24T00:54:22.541Z,17.13
2018-07-24T00:54:26.651Z,17.13
2018-07-24T00:54:30.753Z,17.12
2018-07-24T00:54:34.964Z,17.13
2018-07-24T00:54:39.173Z,17.13
2018-07-24T00:54:43.374Z,17.13
2018-07-24T00:54:47.468Z,17.12
2018-07-24T00:54:51.563Z,17.12
2018-07-24T00:54:55.660Z,17.12